Time;durP1;ratioP1;P1;durP2;ratioP2;P2;SDS_P1;SDS_P2;PMS_P1;PMS_P2;Temp;Humidity;BMP_temperature;BMP_pressure;BME280_temperature;BME280_humidity;BME280_pressure;Samples;Min_cycle;Max_cycle;Signal;HPM_P1;HPM_P2
2022/03/27 22:04:30;;;;;;;5.70;2.08;;;22.40;81.40;;;;;;4188290;27;20976;-66
2022/03/27 22:06:53;;;;;;;5.32;2.10;;;22.20;82.50;;;;;;4190749;27;20138;-66
2022/03/27 22:09:15;;;;;;;6.90;2.00;;;22.30;82.00;;;;;;4195955;27;20043;-65
2022/03/27 22:11:38;;;;;;;3.65;1.98;;;22.30;82.20;;;;;;4216483;27;20040;-63
2022/03/27 22:14:02;;;;;;;6.30;2.08;;;22.30;82.00;;;;;;4202473;27;20381;-68
2022/03/27 22:16:25;;;;;;;6.28;2.35;;;22.40;82.20;;;;;;4231989;27;20135;-68
2022/03/27 22:18:48;;;;;;;8.98;2.03;;;22.40;82.00;;;;;;4224895;27;20065;-67
2022/03/27 22:21:11;;;;;;;4.90;2.10;;;22.40;82.40;;;;;;4221799;27;20043;-71
2022/03/27 22:23:34;;;;;;;5.95;1.92;;;22.50;81.80;;;;;;4230501;27;20177;-72
2022/03/27 22:25:56;;;;;;;4.57;2.03;;;22.50;81.70;;;;;;4225400;27;20217;-66
2022/03/27 22:28:20;;;;;;;3.85;1.75;;;22.50;81.60;;;;;;4224265;27;20038;-66
2022/03/27 22:30:45;;;;;;;5.00;1.63;;;22.60;81.50;;;;;;4215042;27;20039;-61
2022/03/27 22:33:08;;;;;;;3.30;1.67;;;22.60;81.30;;;;;;4210254;27;20123;-63
2022/03/27 22:35:31;;;;;;;3.42;1.60;;;22.60;81.20;;;;;;4226568;27;20045;-62
2022/03/27 22:37:54;;;;;;;2.28;1.65;;;22.70;81.00;;;;;;4234097;27;20042;-62
2022/03/27 22:40:17;;;;;;;6.93;1.50;;;22.70;80.90;;;;;;4238598;27;20098;-64
2022/03/27 22:42:40;;;;;;;15.70;2.40;;;22.80;80.80;;;;;;4245827;27;20157;-64
2022/03/27 22:45:03;;;;;;;4.70;1.77;;;22.80;80.60;;;;;;4252240;27;20072;-69
2022/03/27 22:47:25;;;;;;;5.57;2.28;;;22.80;80.40;;;;;;4246958;27;20041;-66
2022/03/27 22:49:48;;;;;;;4.78;2.30;;;22.80;80.30;;;;;;4247738;27;20069;-62
2022/03/27 22:52:11;;;;;;;3.70;2.03;;;22.90;80.90;;;;;;4251112;27;20581;-70
2022/03/27 22:54:33;;;;;;;6.47;2.13;;;22.90;80.70;;;;;;4245381;27;20061;-69
2022/03/27 22:56:58;;;;;;;3.00;1.45;;;22.90;80.30;;;;;;4245295;27;20603;-68
2022/03/27 22:59:21;;;;;;;2.45;1.63;;;22.90;79.80;;;;;;4253567;27;20113;-71
2022/03/27 23:01:43;;;;;;;4.70;1.88;;;22.90;79.80;;;;;;4246426;27;20025;-69
2022/03/27 23:04:06;;;;;;;4.95;1.63;;;23.00;79.90;;;;;;4251699;27;21817;-69
2022/03/27 23:06:28;;;;;;;5.05;1.98;;;23.00;79.90;;;;;;4255459;27;20670;-69
2022/03/27 23:08:51;;;;;;;5.82;1.90;;;23.00;79.80;;;;;;4247060;27;20049;-64
2022/03/27 23:11:14;;;;;;;7.93;2.10;;;23.10;79.80;;;;;;4249554;27;20044;-66
2022/03/27 23:13:36;;;;;;;5.15;1.65;;;23.10;79.60;;;;;;4251101;27;20045;-68
2022/03/27 23:15:59;;;;;;;5.30;1.50;;;23.10;79.70;;;;;;4234083;27;20030;-69
2022/03/27 23:18:22;;;;;;;3.42;1.50;;;23.10;79.60;;;;;;4218444;27;20046;-68
2022/03/27 23:20:44;;;;;;;1.65;1.50;;;23.10;79.60;;;;;;4246227;27;20657;-67
2022/03/27 23:23:07;;;;;;;1.90;1.50;;;23.20;79.50;;;;;;4238647;27;20110;-68
2022/03/27 23:25:29;;;;;;;2.97;1.58;;;23.20;79.50;;;;;;4237973;27;20180;-69
2022/03/27 23:27:52;;;;;;;2.30;1.60;;;23.20;79.30;;;;;;4244678;27;20045;-67
2022/03/27 23:30:14;;;;;;;2.47;1.58;;;23.20;79.30;;;;;;4235692;27;20030;-66
2022/03/27 23:32:37;;;;;;;11.77;1.90;;;23.30;79.20;;;;;;4234434;27;20034;-65
2022/03/27 23:35:02;;;;;;;2.25;1.40;;;23.30;79.10;;;;;;4240524;27;20677;-67
2022/03/27 23:37:25;;;;;;;2.75;1.58;;;23.30;79.20;;;;;;4221921;27;20174;-68
2022/03/27 23:39:47;;;;;;;1.95;1.20;;;23.30;79.10;;;;;;4236896;27;20038;-71
2022/03/27 23:42:10;;;;;;;2.00;1.25;;;23.40;79.10;;;;;;4248715;27;20042;-69
2022/03/27 23:44:33;;;;;;;2.08;1.58;;;23.40;79.00;;;;;;4239090;27;20046;-62
2022/03/27 23:46:55;;;;;;;6.40;1.40;;;23.40;78.90;;;;;;4231609;27;20027;-65
2022/03/27 23:49:19;;;;;;;5.70;1.80;;;23.50;78.80;;;;;;4240445;27;20065;-65
2022/03/27 23:51:41;;;;;;;5.18;1.40;;;23.50;78.70;;;;;;4231471;27;20471;-60
2022/03/27 23:54:04;;;;;;;3.47;1.45;;;23.50;78.70;;;;;;4216480;27;20038;-60
2022/03/27 23:56:26;;;;;;;3.70;1.45;;;23.50;78.60;;;;;;4238730;27;20130;-60
2022/03/27 23:58:51;;;;;;;5.50;1.85;;;23.50;78.60;;;;;;4232317;27;20106;-62
